createdAt,value
2022-11-04T00:02:11.193Z,1.85
2022-11-04T00:04:44.348Z,1.90
2022-11-04T00:07:33.225Z,2.35
2022-11-04T00:10:00.118Z,1.90
2022-11-04T00:12:30.186Z,1.77
2022-11-04T00:15:21.089Z,2.15
2022-11-04T00:17:51.012Z,2.70
2022-11-04T00:20:36.261Z,2.47
2022-11-04T00:23:24.378Z,2.65
2022-11-04T00:26:09.414Z,2.60
2022-11-04T00:28:53.132Z,2.72
2022-11-04T00:31:38.731Z,2.92
2022-11-04T00:34:05.470Z,3.33
2022-11-04T00:36:33.510Z,2.40
2022-11-04T00:39:03.451Z,2.92
2022-11-04T00:41:34.384Z,2.40
2022-11-04T00:44:06.361Z,2.45
2022-11-04T00:46:43.070Z,2.70
2022-11-04T00:49:13.837Z,2.30
2022-11-04T00:51:44.310Z,2.05
2022-11-04T00:54:11.099Z,2.08
2022-11-04T00:56:41.331Z,2.13
2022-11-04T00:59:11.841Z,1.67
2022-11-04T01:01:47.228Z,1.88
2022-11-04T01:04:14.792Z,1.88
2022-11-04T01:06:44.320Z,2.17
2022-11-04T01:09:15.684Z,1.85
2022-11-04T01:11:45.932Z,2.10
2022-11-04T01:14:16.034Z,1.67
2022-11-04T01:16:49.212Z,2.28
2022-11-04T01:19:29.965Z,2.22
2022-11-04T01:21:57.157Z,1.70
2022-11-04T01:24:26.489Z,1.80
2022-11-04T01:26:59.248Z,1.67
2022-11-04T01:29:29.275Z,1.92
2022-11-04T01:32:01.423Z,2.40
2022-11-04T01:34:31.773Z,2.20
2022-11-04T01:37:02.162Z,3.17
2022-11-04T01:39:32.302Z,2.45
2022-11-04T01:45:10.196Z,2.53
2022-11-04T01:47:39.819Z,2.08
2022-11-04T01:50:17.762Z,2.60
2022-11-04T01:52:51.215Z,2.85
2022-11-04T01:55:27.216Z,3.08
2022-11-04T01:57:59.609Z,3.10
2022-11-04T02:00:27.080Z,2.75
2022-11-04T02:03:02.195Z,3.13
2022-11-04T02:05:30.567Z,2.83
2022-11-04T02:08:08.848Z,3.45
2022-11-04T02:10:36.276Z,2.97
2022-11-04T02:13:05.891Z,3.63
2022-11-04T02:15:49.284Z,3.58
2022-11-04T02:18:42.739Z,2.55
2022-11-04T02:21:16.113Z,2.88
2022-11-04T02:23:55.017Z,2.45
2022-11-04T02:26:38.846Z,2.65
2022-11-04T02:29:17.185Z,3.50
2022-11-04T02:32:02.504Z,3.15
2022-11-04T02:34:35.379Z,2.95
2022-11-04T02:37:08.535Z,3.25
2022-11-04T02:39:47.365Z,3.08
2022-11-04T02:42:29.332Z,2.83
2022-11-04T02:45:01.707Z,3.30
2022-11-04T02:47:35.294Z,3.00
2022-11-04T02:50:16.412Z,2.80
2022-11-04T02:53:16.122Z,2.78
2022-11-04T02:55:51.110Z,2.80
2022-11-04T02:58:30.031Z,2.67
2022-11-04T03:01:08.069Z,3.05
2022-11-04T03:03:46.830Z,2.70
2022-11-04T03:06:17.984Z,3.03
2022-11-04T03:08:50.128Z,2.80
2022-11-04T03:11:25.356Z,2.83
2022-11-04T03:13:52.504Z,3.45
2022-11-04T03:16:29.005Z,2.90
2022-11-04T03:19:02.751Z,3.40
2022-11-04T03:21:38.165Z,3.03
2022-11-04T03:24:08.465Z,2.70
2022-11-04T03:26:41.375Z,3.20
2022-11-04T03:29:08.112Z,2.85
2022-11-04T03:31:55.046Z,3.30
2022-11-04T03:34:28.092Z,2.97
2022-11-04T03:36:57.564Z,2.25
2022-11-04T03:39:25.877Z,2.65
2022-11-04T03:42:00.479Z,2.80
2022-11-04T03:44:29.286Z,2.40
2022-11-04T03:46:59.140Z,2.53
2022-11-04T03:49:29.385Z,2.65
2022-11-04T03:51:57.955Z,2.63
2022-11-04T03:54:24.830Z,2.65
2022-11-04T03:57:16.129Z,2.70
2022-11-04T03:59:50.927Z,2.28
2022-11-04T04:02:24.365Z,2.60
2022-11-04T04:05:01.184Z,2.40
2022-11-04T04:07:36.763Z,2.72
2022-11-04T04:10:42.073Z,2.97
2022-11-04T04:13:18.184Z,2.33
2022-11-04T04:15:51.186Z,2.10
2022-11-04T04:18:20.821Z,2.10
2022-11-04T04:20:51.028Z,2.30
2022-11-04T04:23:39.197Z,2.22
2022-11-04T04:26:28.917Z,2.10
2022-11-04T04:29:04.635Z,3.00
2022-11-04T04:31:52.829Z,2.33
2022-11-04T04:34:21.684Z,1.98
2022-11-04T04:36:58.845Z,1.80
2022-11-04T04:39:47.364Z,2.42
2022-11-04T04:42:32.568Z,2.25
2022-11-04T04:45:05.297Z,2.33
2022-11-04T04:47:40.222Z,1.80
2022-11-04T04:50:07.422Z,1.60
2022-11-04T04:52:38.909Z,1.70
2022-11-04T04:55:06.095Z,1.83
2022-11-04T04:57:36.465Z,1.80
2022-11-04T05:00:07.299Z,1.50
2022-11-04T05:02:36.652Z,1.75
2022-11-04T05:05:03.938Z,1.75
2022-11-04T05:07:36.460Z,1.55
2022-11-04T05:10:03.974Z,1.50
2022-11-04T05:12:50.974Z,1.77
2022-11-04T05:15:21.468Z,1.55
2022-11-04T05:17:53.496Z,1.40
2022-11-04T05:20:20.612Z,1.40
2022-11-04T05:22:52.793Z,1.70
2022-11-04T05:25:26.146Z,1.65
2022-11-04T05:28:05.655Z,1.50
2022-11-04T05:30:37.404Z,1.60
2022-11-04T05:33:08.547Z,1.70
2022-11-04T05:35:35.692Z,1.42
2022-11-04T05:38:02.576Z,1.40
2022-11-04T05:40:36.745Z,1.42
2022-11-04T05:43:04.262Z,1.60
2022-11-04T05:45:34.659Z,1.55
2022-11-04T05:48:02.554Z,1.52
2022-11-04T05:50:30.674Z,1.40
2022-11-04T05:53:02.212Z,1.58
2022-11-04T05:55:32.164Z,1.45
2022-11-04T05:57:59.557Z,1.50
2022-11-04T06:00:26.949Z,1.55
2022-11-04T06:02:55.201Z,1.23
2022-11-04T06:05:22.381Z,1.20
2022-11-04T06:07:49.281Z,1.20
2022-11-04T06:10:19.516Z,1.10
2022-11-04T06:12:46.375Z,1.20
2022-11-04T06:15:14.471Z,1.25
2022-11-04T06:17:41.865Z,1.08
2022-11-04T06:20:09.019Z,1.13
2022-11-04T06:22:36.551Z,1.13
2022-11-04T06:25:05.147Z,0.90
2022-11-04T06:27:39.113Z,1.30
2022-11-04T06:30:08.763Z,1.35
2022-11-04T06:32:42.554Z,1.13
2022-11-04T06:35:09.545Z,0.80
2022-11-04T06:37:39.561Z,1.10
2022-11-04T06:40:06.774Z,1.23
2022-11-04T06:42:36.500Z,1.30
2022-11-04T06:45:03.429Z,1.23
2022-11-04T06:47:30.280Z,1.00
2022-11-04T06:49:59.413Z,1.20
2022-11-04T06:52:26.260Z,1.05
2022-11-04T06:55:04.102Z,1.02
2022-11-04T06:57:32.128Z,0.90
2022-11-04T07:00:03.529Z,1.05
2022-11-04T07:02:33.713Z,0.95
2022-11-04T07:05:05.122Z,1.17
2022-11-04T07:07:31.987Z,1.20
2022-11-04T07:09:59.719Z,1.50
2022-11-04T07:12:28.483Z,1.50
2022-11-04T07:15:01.430Z,1.20
2022-11-04T07:17:30.802Z,1.13
2022-11-04T07:20:00.132Z,1.27
2022-11-04T07:22:27.191Z,1.02
2022-11-04T07:24:59.315Z,1.17
2022-11-04T07:27:38.634Z,1.17
2022-11-04T07:30:07.654Z,1.10
2022-11-04T07:32:34.790Z,1.10
2022-11-04T07:35:01.568Z,1.13
2022-11-04T07:37:32.093Z,1.20
2022-11-04T07:40:02.732Z,1.10
2022-11-04T07:42:32.719Z,0.95
2022-11-04T07:45:04.837Z,1.00
2022-11-04T07:47:32.082Z,1.20
2022-11-04T07:49:59.809Z,1.27
2022-11-04T07:52:26.761Z,1.20
2022-11-04T07:54:56.728Z,1.30
2022-11-04T07:57:26.891Z,1.23
2022-11-04T07:59:59.749Z,1.10
2022-11-04T08:02:35.045Z,1.15
2022-11-04T08:05:12.172Z,1.17
2022-11-04T08:07:39.126Z,1.08
2022-11-04T08:10:09.223Z,0.93
2022-11-04T08:12:41.395Z,1.05
2022-11-04T08:15:08.826Z,0.95
2022-11-04T08:17:35.916Z,1.00
2022-11-04T08:20:08.867Z,1.05
2022-11-04T08:22:45.018Z,0.93
2022-11-04T08:25:15.242Z,0.98
2022-11-04T08:27:45.566Z,0.90
2022-11-04T08:30:15.954Z,0.90
2022-11-04T08:32:46.211Z,0.70
2022-11-04T08:35:25.535Z,0.70
2022-11-04T08:37:53.583Z,0.90
2022-11-04T08:40:27.358Z,0.95
2022-11-04T08:43:01.821Z,0.85
2022-11-04T08:45:34.950Z,0.77
2022-11-04T08:48:05.515Z,0.70
2022-11-04T08:50:36.185Z,0.60
2022-11-04T08:53:03.651Z,0.80
2022-11-04T08:55:31.371Z,0.65
2022-11-04T08:57:59.499Z,0.68
2022-11-04T09:00:27.130Z,1.00
2022-11-04T09:02:57.372Z,0.95
2022-11-04T09:05:27.066Z,0.60
2022-11-04T09:07:53.883Z,0.82
2022-11-04T09:10:26.016Z,0.88
2022-11-04T09:12:55.984Z,0.90
2022-11-04T09:15:26.555Z,0.85
2022-11-04T09:17:53.373Z,0.90
2022-11-04T09:20:22.542Z,0.80
2022-11-04T09:22:54.416Z,0.90
2022-11-04T09:25:24.617Z,0.80
2022-11-04T09:27:51.589Z,0.82
2022-11-04T09:30:22.487Z,0.70
2022-11-04T09:32:52.917Z,0.80
2022-11-04T09:35:20.614Z,0.65
2022-11-04T09:37:51.445Z,0.95
2022-11-04T09:40:23.648Z,0.90
2022-11-04T09:42:50.492Z,0.80
2022-11-04T09:45:23.220Z,1.10
2022-11-04T09:47:51.329Z,0.73
2022-11-04T09:50:29.660Z,0.70
2022-11-04T09:53:09.347Z,0.95
2022-11-04T09:55:50.325Z,1.15
2022-11-04T09:58:23.696Z,1.20
2022-11-04T10:01:09.561Z,1.13
2022-11-04T11:13:02.638Z,0.93
2022-11-04T11:15:42.170Z,1.85
2022-11-04T11:18:22.308Z,1.20
2022-11-04T11:21:13.479Z,1.30
2022-11-04T11:23:42.106Z,1.40
2022-11-04T11:26:17.763Z,1.50
2022-11-04T11:28:58.479Z,1.52
2022-11-04T11:31:27.015Z,1.33
2022-11-04T11:34:02.510Z,1.63
2022-11-04T11:36:33.662Z,2.00
2022-11-04T11:39:17.121Z,1.35
2022-11-04T11:41:53.126Z,1.63
2022-11-04T11:44:24.196Z,1.45
2022-11-04T11:46:54.761Z,1.10
2022-11-04T11:49:29.613Z,1.65
2022-11-04T11:52:00.327Z,1.50
2022-11-04T11:54:33.982Z,1.83
2022-11-04T11:57:13.841Z,1.55
2022-11-04T12:02:47.288Z,1.20
2022-11-04T12:11:01.272Z,1.10
2022-11-04T12:13:30.681Z,1.20
2022-11-04T12:16:19.057Z,1.25
2022-11-04T12:19:06.939Z,0.77
2022-11-04T12:21:47.531Z,0.95
2022-11-04T12:24:32.922Z,0.73
2022-11-04T12:27:04.114Z,0.90
2022-11-04T12:29:41.387Z,1.08
2022-11-04T12:32:18.406Z,0.80
2022-11-04T12:35:10.466Z,0.90
2022-11-04T12:37:56.904Z,0.82
2022-11-04T12:40:42.467Z,0.88
2022-11-04T12:43:27.894Z,1.10
2022-11-04T12:46:03.839Z,1.40
2022-11-04T12:48:54.385Z,1.00
2022-11-04T12:51:29.869Z,1.20
2022-11-04T12:54:05.647Z,1.30
2022-11-04T12:56:38.116Z,1.38
2022-11-04T12:59:33.639Z,1.17
2022-11-04T13:02:10.266Z,0.93
2022-11-04T13:04:42.838Z,1.20
2022-11-04T13:07:15.009Z,0.90
2022-11-04T13:09:47.338Z,0.95
2022-11-04T13:12:17.684Z,1.15
2022-11-04T13:14:53.798Z,1.50
2022-11-04T13:17:30.793Z,1.00
2022-11-04T13:20:00.781Z,1.05
2022-11-04T13:22:34.397Z,0.93
2022-11-04T13:25:05.856Z,1.30
2022-11-04T13:27:38.215Z,1.33
2022-11-04T13:30:23.505Z,1.30
2022-11-04T13:33:09.331Z,1.40
2022-11-04T13:35:49.084Z,0.95
2022-11-04T13:38:21.618Z,1.05
2022-11-04T13:40:57.640Z,1.00
2022-11-04T13:43:45.817Z,0.85
2022-11-04T13:46:21.639Z,0.95
2022-11-04T13:49:04.131Z,1.33
2022-11-04T13:51:38.984Z,1.10
2022-11-04T13:54:07.216Z,1.10
2022-11-04T13:56:39.132Z,0.93
2022-11-04T13:59:14.914Z,1.10
2022-11-04T14:01:43.521Z,0.80
2022-11-04T14:04:17.252Z,1.25
2022-11-04T14:06:49.558Z,1.55
2022-11-04T14:09:34.710Z,1.10
2022-11-04T14:12:13.903Z,1.05
2022-11-04T14:14:42.461Z,0.95
2022-11-04T14:17:28.158Z,1.00
2022-11-04T14:20:13.679Z,0.93
2022-11-04T14:22:49.541Z,1.00
2022-11-04T14:25:34.081Z,1.10
2022-11-04T14:28:12.515Z,0.93
2022-11-04T14:30:48.677Z,1.08
2022-11-04T14:33:28.085Z,0.90
2022-11-04T14:36:00.036Z,0.93
2022-11-04T14:38:42.879Z,1.33
2022-11-04T14:41:22.088Z,1.15
2022-11-04T14:43:53.734Z,0.80
2022-11-04T14:46:22.984Z,0.88
2022-11-04T14:49:01.899Z,1.30
2022-11-04T14:51:30.541Z,0.90
2022-11-04T14:54:05.295Z,1.45
2022-11-04T14:56:32.591Z,1.83
2022-11-04T14:59:04.030Z,1.77
2022-11-04T15:01:38.465Z,1.90
2022-11-04T15:04:27.075Z,1.65
2022-11-04T15:07:00.801Z,1.20
2022-11-04T15:09:32.249Z,1.08
2022-11-04T15:12:29.529Z,1.25
2022-11-04T15:15:03.385Z,0.80
2022-11-04T15:17:38.093Z,0.80
2022-11-04T15:20:07.996Z,0.80
2022-11-04T15:22:38.750Z,0.82
2022-11-04T15:25:12.040Z,0.82
2022-11-04T15:27:45.331Z,0.93
2022-11-04T15:30:27.503Z,1.00
2022-11-04T15:33:00.351Z,0.80
2022-11-04T15:35:36.776Z,0.90
2022-11-04T15:38:04.294Z,0.90
2022-11-04T15:40:36.983Z,1.10
2022-11-04T15:43:08.019Z,1.48
2022-11-04T15:45:59.588Z,1.17
2022-11-04T15:48:31.162Z,1.10
2022-11-04T15:51:15.864Z,1.00
2022-11-04T15:53:50.832Z,1.02
2022-11-04T15:56:26.323Z,1.10
2022-11-04T15:58:58.627Z,1.02
2022-11-04T16:01:31.194Z,1.23
2022-11-04T16:04:02.295Z,0.85
2022-11-04T16:06:40.088Z,0.80
2022-11-04T16:09:15.983Z,0.73
2022-11-04T16:12:04.180Z,0.90
2022-11-04T16:14:31.029Z,0.77
2022-11-04T16:17:01.231Z,0.90
2022-11-04T16:19:32.712Z,0.60
2022-11-04T16:22:05.185Z,0.80
2022-11-04T16:24:38.454Z,0.85
2022-11-04T16:27:12.118Z,0.80
2022-11-04T16:29:42.677Z,0.90
2022-11-04T16:32:18.241Z,1.13
2022-11-04T16:34:48.916Z,0.80
2022-11-04T16:37:16.065Z,1.02
2022-11-04T16:39:45.218Z,0.90
2022-11-04T16:42:16.216Z,0.90
2022-11-04T16:44:53.131Z,0.80
2022-11-04T16:47:23.275Z,0.80
2022-11-04T16:49:50.179Z,1.00
2022-11-04T16:52:25.793Z,0.90
2022-11-04T16:54:56.889Z,0.82
2022-11-04T16:57:27.669Z,0.93
2022-11-04T16:59:55.685Z,0.80
2022-11-04T17:02:31.180Z,0.93
2022-11-04T17:04:58.371Z,0.90
2022-11-04T17:07:40.721Z,0.90
2022-11-04T17:10:19.237Z,1.83
2022-11-04T17:12:49.705Z,1.50
2022-11-04T17:15:19.436Z,1.48
2022-11-04T17:17:49.620Z,0.90
2022-11-04T17:20:18.772Z,1.10
2022-11-04T17:22:47.310Z,0.90
2022-11-04T17:25:24.824Z,0.90
2022-11-04T17:27:56.728Z,0.90
2022-11-04T17:30:27.367Z,0.80
2022-11-04T17:32:55.779Z,0.88
2022-11-04T17:35:28.836Z,0.93
2022-11-04T17:38:01.916Z,1.23
2022-11-04T17:40:32.317Z,0.80
2022-11-04T17:43:20.505Z,1.17
2022-11-04T17:46:08.648Z,1.02
2022-11-04T17:48:41.501Z,0.80
2022-11-04T17:51:11.302Z,0.80
2022-11-04T17:53:41.528Z,1.00
2022-11-04T17:56:18.601Z,0.95
2022-11-04T17:58:45.685Z,0.90
2022-11-04T18:01:14.430Z,0.90
2022-11-04T18:03:48.184Z,0.93
2022-11-04T18:06:15.086Z,1.10
2022-11-04T18:08:44.859Z,1.10
2022-11-04T18:11:40.628Z,1.13
2022-11-04T18:14:11.091Z,1.27
2022-11-04T18:16:43.981Z,0.93
2022-11-04T18:19:13.932Z,1.10
2022-11-04T18:21:44.369Z,1.23
2022-11-04T18:24:12.356Z,1.50
2022-11-04T18:26:39.453Z,1.40
2022-11-04T18:29:06.774Z,1.10
2022-11-04T18:31:38.268Z,1.00
2022-11-04T18:34:10.710Z,1.10
2022-11-04T18:36:40.657Z,1.10
2022-11-04T18:39:11.899Z,1.00
2022-11-04T18:41:48.226Z,1.13
2022-11-04T18:44:21.213Z,1.50
2022-11-04T18:46:48.602Z,1.10
2022-11-04T18:49:18.913Z,1.45
2022-11-04T18:51:45.816Z,1.10
2022-11-04T18:54:20.277Z,1.08
2022-11-04T18:56:49.705Z,1.23
2022-11-04T18:59:19.755Z,1.55
2022-11-04T19:01:51.837Z,1.25
2022-11-04T19:04:24.795Z,1.38
2022-11-04T19:06:57.900Z,1.73
2022-11-04T19:12:33.915Z,1.50
2022-11-04T19:15:04.754Z,1.40
2022-11-04T19:17:34.427Z,1.10
2022-11-04T19:20:05.415Z,1.20
2022-11-04T19:22:43.310Z,1.00
2022-11-04T19:25:16.192Z,1.27
2022-11-04T19:27:47.752Z,1.05
2022-11-04T19:30:20.619Z,1.17
2022-11-04T19:32:47.490Z,1.02
2022-11-04T19:35:14.290Z,1.25
2022-11-04T19:37:47.688Z,1.17
2022-11-04T19:40:15.209Z,1.25
2022-11-04T19:43:00.480Z,1.10
2022-11-04T19:45:28.251Z,1.38
2022-11-04T19:48:01.450Z,1.10
2022-11-04T19:50:28.290Z,1.10
2022-11-04T19:52:55.067Z,1.17
2022-11-04T19:55:30.553Z,1.67
2022-11-04T19:58:02.206Z,3.17
2022-11-04T20:00:33.086Z,2.25
2022-11-04T20:03:03.303Z,2.88
2022-11-04T20:05:40.366Z,3.35
2022-11-04T20:08:11.447Z,3.13
2022-11-04T20:10:42.866Z,2.15
2022-11-04T20:13:36.017Z,1.77
2022-11-04T20:16:13.037Z,2.45
2022-11-04T20:18:45.681Z,2.00
2022-11-04T20:21:13.154Z,1.40
2022-11-04T20:23:45.659Z,1.67
2022-11-04T20:26:25.267Z,1.40
2022-11-04T20:28:55.002Z,1.40
2022-11-04T20:31:26.752Z,1.15
2022-11-04T20:33:53.935Z,1.15
2022-11-04T20:36:24.612Z,0.90
2022-11-04T20:39:05.086Z,1.10
2022-11-04T20:41:32.259Z,1.13
2022-11-04T20:44:03.090Z,1.17
2022-11-04T20:46:34.993Z,1.00
2022-11-04T20:49:08.093Z,1.30
2022-11-04T20:51:38.797Z,1.10
2022-11-04T20:54:10.478Z,1.10
2022-11-04T20:56:38.597Z,1.02
2022-11-04T20:59:11.633Z,1.08
2022-11-04T21:01:44.978Z,1.25
2022-11-04T21:04:18.262Z,1.25
2022-11-04T21:06:52.704Z,1.25
2022-11-04T21:09:23.753Z,1.05
2022-11-04T21:11:52.594Z,1.15
2022-11-04T21:14:22.770Z,0.90
2022-11-04T21:16:56.019Z,0.98
2022-11-04T21:19:29.144Z,1.20
2022-11-04T21:21:58.974Z,1.30
2022-11-04T21:24:37.931Z,1.40
2022-11-04T21:27:12.307Z,1.27
2022-11-04T21:29:46.639Z,0.93
2022-11-04T21:32:16.743Z,1.10
2022-11-04T21:34:46.990Z,1.00
2022-11-04T21:37:17.999Z,1.38
2022-11-04T21:39:44.881Z,1.10
2022-11-04T21:42:18.514Z,1.38
2022-11-04T21:44:47.906Z,1.42
2022-11-04T21:47:17.928Z,0.98
2022-11-04T21:52:19.587Z,1.33
2022-11-04T21:54:46.479Z,1.17
2022-11-04T21:57:16.622Z,1.08
2022-11-04T21:59:52.059Z,1.20
2022-11-04T22:02:22.172Z,0.93
2022-11-04T22:04:55.521Z,1.05
2022-11-04T22:07:43.903Z,1.83
2022-11-04T22:10:10.675Z,1.20
2022-11-04T22:12:44.707Z,1.10
2022-11-04T22:15:36.152Z,1.38
2022-11-04T22:18:08.996Z,1.17
2022-11-04T22:20:38.138Z,1.25
2022-11-04T22:23:05.125Z,1.20
2022-11-04T22:25:32.059Z,1.30
2022-11-04T22:28:07.239Z,1.20
2022-11-04T22:30:42.131Z,1.38
2022-11-04T22:33:09.801Z,1.40
2022-11-04T22:35:39.863Z,1.30
2022-11-04T22:38:15.208Z,1.00
2022-11-04T22:40:45.809Z,1.30
2022-11-04T22:43:20.695Z,1.10
2022-11-04T22:45:50.324Z,1.25
2022-11-04T22:48:21.104Z,1.08
2022-11-04T22:50:53.685Z,1.02
2022-11-04T22:53:20.588Z,1.08
2022-11-04T22:56:12.264Z,1.20
2022-11-04T22:58:44.306Z,1.23
2022-11-04T23:01:14.233Z,1.35
2022-11-04T23:03:43.319Z,1.27
2022-11-04T23:06:13.826Z,1.50
2022-11-04T23:08:46.156Z,1.15
2022-11-04T23:11:39.782Z,1.10
2022-11-04T23:14:25.349Z,1.20
2022-11-04T23:17:10.352Z,1.20
2022-11-04T23:19:40.348Z,0.90
2022-11-04T23:22:26.627Z,1.15
2022-11-04T23:25:11.629Z,1.25
2022-11-04T23:28:04.205Z,1.13
2022-11-04T23:30:36.265Z,1.13
2022-11-04T23:33:10.942Z,1.42
2022-11-04T23:35:59.836Z,1.30
2022-11-04T23:38:30.505Z,1.30
2022-11-04T23:41:17.879Z,1.15
2022-11-04T23:43:45.712Z,1.27
2022-11-04T23:46:31.533Z,1.20
2022-11-04T23:49:16.621Z,1.42
2022-11-04T23:52:04.634Z,1.10
2022-11-04T23:54:52.756Z,1.50
2022-11-04T23:57:37.835Z,1.20
